sensor_id;sensor_type;location;lat;lon;timestamp;temperature;humidity
1405;DHT22;697;51.114;6.542;2024-01-15T00:00:17;2.10;99.90
1405;DHT22;697;51.114;6.542;2024-01-15T00:02:44;2.10;99.90
1405;DHT22;697;51.114;6.542;2024-01-15T00:05:10;2.00;99.90
1405;DHT22;697;51.114;6.542;2024-01-15T00:07:37;2.00;99.90
1405;DHT22;697;51.114;6.542;2024-01-15T00:10:04;2.00;99.90
1405;DHT22;697;51.114;6.542;2024-01-15T00:12:31;2.00;99.90
1405;DHT22;697;51.114;6.542;2024-01-15T00:14:58;2.10;99.90
1405;DHT22;697;51.114;6.542;2024-01-15T00:17:26;2.00;99.90
1405;DHT22;697;51.114;6.542;2024-01-15T00:19:53;2.10;99.90
1405;DHT22;697;51.114;6.542;2024-01-15T00:22:19;2.00;99.90
1405;DHT22;697;51.114;6.542;2024-01-15T00:24:46;2.00;99.90
1405;DHT22;697;51.114;6.542;2024-01-15T00:27:13;2.00;99.90
1405;DHT22;697;51.114;6.542;2024-01-15T00:29:39;2.00;99.90
1405;DHT22;697;51.114;6.542;2024-01-15T00:32:06;2.00;99.90
1405;DHT22;697;51.114;6.542;2024-01-15T00:34:34;2.00;99.90
1405;DHT22;697;51.114;6.542;2024-01-15T00:37:01;2.00;99.90
1405;DHT22;697;51.114;6.542;2024-01-15T00:39:28;1.90;99.90
1405;DHT22;697;51.114;6.542;2024-01-15T00:41:55;2.00;99.90
1405;DHT22;697;51.114;6.542;2024-01-15T00:44:21;2.00;99.90
1405;DHT22;697;51.114;6.542;2024-01-15T00:46:48;2.00;99.90
1405;DHT22;697;51.114;6.542;2024-01-15T00:49:15;1.90;99.90
1405;DHT22;697;51.114;6.542;2024-01-15T00:51:43;2.00;99.90
1405;DHT22;697;51.114;6.542;2024-01-15T00:54:10;2.00;99.90
1405;DHT22;697;51.114;6.542;2024-01-15T00:56:37;2.00;99.90
1405;DHT22;697;51.114;6.542;2024-01-15T00:59:03;2.00;99.90
1405;DHT22;697;51.114;6.542;2024-01-15T01:01:30;1.90;99.90
1405;DHT22;697;51.114;6.542;2024-01-15T01:03:57;2.00;99.90
1405;DHT22;697;51.114;6.542;2024-01-15T01:06:23;2.00;99.90
1405;DHT22;697;51.114;6.542;2024-01-15T01:08:51;2.00;99.90
1405;DHT22;697;51.114;6.542;2024-01-15T01:11:18;2.10;99.90
1405;DHT22;697;51.114;6.542;2024-01-15T01:13:45;2.10;99.90
1405;DHT22;697;51.114;6.542;2024-01-15T01:16:12;2.10;99.90
1405;DHT22;697;51.114;6.542;2024-01-15T01:18:38;2.10;99.90
1405;DHT22;697;51.114;6.542;2024-01-15T01:21:05;2.10;99.90
1405;DHT22;697;51.114;6.542;2024-01-15T01:23:32;2.10;99.90
1405;DHT22;697;51.114;6.542;2024-01-15T01:26:00;2.10;99.90
1405;DHT22;697;51.114;6.542;2024-01-15T01:28:27;2.10;99.90
1405;DHT22;697;51.114;6.542;2024-01-15T01:30:54;2.10;99.90
1405;DHT22;697;51.114;6.542;2024-01-15T01:33:21;2.10;99.90
1405;DHT22;697;51.114;6.542;2024-01-15T01:35:47;2.10;99.90
1405;DHT22;697;51.114;6.542;2024-01-15T01:38:14;2.20;99.90
1405;DHT22;697;51.114;6.542;2024-01-15T01:40:41;2.20;99.90
1405;DHT22;697;51.114;6.542;2024-01-15T01:43:10;2.20;99.90
1405;DHT22;697;51.114;6.542;2024-01-15T01:45:37;2.20;99.90
1405;DHT22;697;51.114;6.542;2024-01-15T01:48:04;2.20;99.90
1405;DHT22;697;51.114;6.542;2024-01-15T01:50:31;2.10;99.90
1405;DHT22;697;51.114;6.542;2024-01-15T01:52:58;2.20;99.90
1405;DHT22;697;51.114;6.542;2024-01-15T01:55:27;2.20;99.90
1405;DHT22;697;51.114;6.542;2024-01-15T01:57:56;2.20;99.90
1405;DHT22;697;51.114;6.542;2024-01-15T02:00:24;2.20;99.90
1405;DHT22;697;51.114;6.542;2024-01-15T02:02:51;2.20;99.90
1405;DHT22;697;51.114;6.542;2024-01-15T02:05:19;2.20;99.90
1405;DHT22;697;51.114;6.542;2024-01-15T02:07:47;2.20;99.90
1405;DHT22;697;51.114;6.542;2024-01-15T02:10:14;2.30;99.90
1405;DHT22;697;51.114;6.542;2024-01-15T02:12:42;2.30;99.90
1405;DHT22;697;51.114;6.542;2024-01-15T02:15:09;2.20;99.90
1405;DHT22;697;51.114;6.542;2024-01-15T02:17:56;2.20;99.90
1405;DHT22;697;51.114;6.542;2024-01-15T02:20:23;2.30;99.90
1405;DHT22;697;51.114;6.542;2024-01-15T02:22:50;2.30;99.90
1405;DHT22;697;51.114;6.542;2024-01-15T02:25:19;2.30;99.90
1405;DHT22;697;51.114;6.542;2024-01-15T02:27:46;2.30;99.90
1405;DHT22;697;51.114;6.542;2024-01-15T02:30:13;2.20;99.90
1405;DHT22;697;51.114;6.542;2024-01-15T02:32:40;2.30;99.90
1405;DHT22;697;51.114;6.542;2024-01-15T02:35:07;2.20;99.90
1405;DHT22;697;51.114;6.542;2024-01-15T02:37:34;2.30;99.90
1405;DHT22;697;51.114;6.542;2024-01-15T02:40:00;2.30;99.90
1405;DHT22;697;51.114;6.542;2024-01-15T02:42:28;2.30;99.90
1405;DHT22;697;51.114;6.542;2024-01-15T02:44:55;2.30;99.90
1405;DHT22;697;51.114;6.542;2024-01-15T02:47:22;2.30;99.90
1405;DHT22;697;51.114;6.542;2024-01-15T02:49:48;2.30;99.90
1405;DHT22;697;51.114;6.542;2024-01-15T02:52:15;2.30;99.90
1405;DHT22;697;51.114;6.542;2024-01-15T02:54:42;2.30;99.90
1405;DHT22;697;51.114;6.542;2024-01-15T02:57:08;2.30;99.90
1405;DHT22;697;51.114;6.542;2024-01-15T02:59:37;2.30;99.90
1405;DHT22;697;51.114;6.542;2024-01-15T03:02:03;2.30;99.90
1405;DHT22;697;51.114;6.542;2024-01-15T03:04:30;2.30;99.90
1405;DHT22;697;51.114;6.542;2024-01-15T03:06:57;2.30;99.90
1405;DHT22;697;51.114;6.542;2024-01-15T03:09:23;2.30;99.90
1405;DHT22;697;51.114;6.542;2024-01-15T03:11:50;2.30;99.90
1405;DHT22;697;51.114;6.542;2024-01-15T03:14:17;2.30;99.90
1405;DHT22;697;51.114;6.542;2024-01-15T03:16:45;2.40;99.90
1405;DHT22;697;51.114;6.542;2024-01-15T03:19:11;2.30;99.90
1405;DHT22;697;51.114;6.542;2024-01-15T03:21:38;2.40;99.90
1405;DHT22;697;51.114;6.542;2024-01-15T03:24:05;2.40;99.90
1405;DHT22;697;51.114;6.542;2024-01-15T03:26:32;2.30;99.90
1405;DHT22;697;51.114;6.542;2024-01-15T03:28:58;2.30;99.90
1405;DHT22;697;51.114;6.542;2024-01-15T03:31:25;2.40;99.90
1405;DHT22;697;51.114;6.542;2024-01-15T03:33:53;2.40;99.90
1405;DHT22;697;51.114;6.542;2024-01-15T03:36:20;2.40;99.90
1405;DHT22;697;51.114;6.542;2024-01-15T03:38:46;2.40;99.90
1405;DHT22;697;51.114;6.542;2024-01-15T03:41:13;2.40;99.90
1405;DHT22;697;51.114;6.542;2024-01-15T03:43:40;2.40;99.90
1405;DHT22;697;51.114;6.542;2024-01-15T03:46:07;2.40;99.90
1405;DHT22;697;51.114;6.542;2024-01-15T03:48:34;2.40;99.90
1405;DHT22;697;51.114;6.542;2024-01-15T03:51:02;2.40;99.90
1405;DHT22;697;51.114;6.542;2024-01-15T03:53:29;2.40;99.90
1405;DHT22;697;51.114;6.542;2024-01-15T03:55:56;2.30;99.90
1405;DHT22;697;51.114;6.542;2024-01-15T03:58:22;2.30;99.90
1405;DHT22;697;51.114;6.542;2024-01-15T04:00:49;2.30;99.90
1405;DHT22;697;51.114;6.542;2024-01-15T04:03:16;2.30;99.90
1405;DHT22;697;51.114;6.542;2024-01-15T04:05:43;2.30;99.90
1405;DHT22;697;51.114;6.542;2024-01-15T04:08:11;2.30;99.90
1405;DHT22;697;51.114;6.542;2024-01-15T04:10:38;2.40;99.90
1405;DHT22;697;51.114;6.542;2024-01-15T04:13:04;2.40;99.90
1405;DHT22;697;51.114;6.542;2024-01-15T04:15:31;2.40;99.90
1405;DHT22;697;51.114;6.542;2024-01-15T04:17:58;2.40;99.90
1405;DHT22;697;51.114;6.542;2024-01-15T04:20:26;2.40;99.90
1405;DHT22;697;51.114;6.542;2024-01-15T04:22:53;2.50;99.90
1405;DHT22;697;51.114;6.542;2024-01-15T04:25:21;2.40;99.90
1405;DHT22;697;51.114;6.542;2024-01-15T04:27:48;2.30;99.90
1405;DHT22;697;51.114;6.542;2024-01-15T04:30:15;2.40;99.90
1405;DHT22;697;51.114;6.542;2024-01-15T04:32:41;2.40;99.90
1405;DHT22;697;51.114;6.542;2024-01-15T04:35:08;2.40;99.90
1405;DHT22;697;51.114;6.542;2024-01-15T04:37:35;2.40;99.90
1405;DHT22;697;51.114;6.542;2024-01-15T04:40:02;2.40;99.90
1405;DHT22;697;51.114;6.542;2024-01-15T04:42:30;2.40;99.90
1405;DHT22;697;51.114;6.542;2024-01-15T04:44:57;2.40;99.90
1405;DHT22;697;51.114;6.542;2024-01-15T04:47:24;2.40;99.90
1405;DHT22;697;51.114;6.542;2024-01-15T04:49:50;2.40;99.90
1405;DHT22;697;51.114;6.542;2024-01-15T04:52:17;2.30;99.90
1405;DHT22;697;51.114;6.542;2024-01-15T04:54:44;2.40;99.90
1405;DHT22;697;51.114;6.542;2024-01-15T04:57:10;2.40;99.90
1405;DHT22;697;51.114;6.542;2024-01-15T04:59:38;2.50;99.90
1405;DHT22;697;51.114;6.542;2024-01-15T05:02:06;2.40;99.90
1405;DHT22;697;51.114;6.542;2024-01-15T05:04:32;2.40;99.90
1405;DHT22;697;51.114;6.542;2024-01-15T05:06:59;2.40;99.90
1405;DHT22;697;51.114;6.542;2024-01-15T05:09:26;2.40;99.90
1405;DHT22;697;51.114;6.542;2024-01-15T05:11:53;2.30;99.90
1405;DHT22;697;51.114;6.542;2024-01-15T05:14:19;2.30;99.90
1405;DHT22;697;51.114;6.542;2024-01-15T05:16:50;2.30;99.90
1405;DHT22;697;51.114;6.542;2024-01-15T05:19:18;2.30;99.90
1405;DHT22;697;51.114;6.542;2024-01-15T05:21:45;2.30;99.90
1405;DHT22;697;51.114;6.542;2024-01-15T05:24:11;2.40;99.90
1405;DHT22;697;51.114;6.542;2024-01-15T05:26:38;2.40;99.90
1405;DHT22;697;51.114;6.542;2024-01-15T05:29:05;2.40;99.90
1405;DHT22;697;51.114;6.542;2024-01-15T05:31:31;2.40;99.90
1405;DHT22;697;51.114;6.542;2024-01-15T05:33:59;2.40;99.90
1405;DHT22;697;51.114;6.542;2024-01-15T05:36:26;2.40;99.90
1405;DHT22;697;51.114;6.542;2024-01-15T05:38:53;2.40;99.90
1405;DHT22;697;51.114;6.542;2024-01-15T05:41:19;2.40;99.90
1405;DHT22;697;51.114;6.542;2024-01-15T05:43:46;2.40;99.90
1405;DHT22;697;51.114;6.542;2024-01-15T05:46:13;2.40;99.90
1405;DHT22;697;51.114;6.542;2024-01-15T05:48:41;2.50;99.90
1405;DHT22;697;51.114;6.542;2024-01-15T05:51:10;2.50;99.90
1405;DHT22;697;51.114;6.542;2024-01-15T05:53:36;2.50;99.90
1405;DHT22;697;51.114;6.542;2024-01-15T05:56:06;2.50;99.90
1405;DHT22;697;51.114;6.542;2024-01-15T05:58:32;2.50;99.90
1405;DHT22;697;51.114;6.542;2024-01-15T06:00:59;2.50;99.90
1405;DHT22;697;51.114;6.542;2024-01-15T06:03:27;2.50;99.90
1405;DHT22;697;51.114;6.542;2024-01-15T06:05:53;2.50;99.90
1405;DHT22;697;51.114;6.542;2024-01-15T06:08:22;2.60;99.90
1405;DHT22;697;51.114;6.542;2024-01-15T06:10:48;2.50;99.90
1405;DHT22;697;51.114;6.542;2024-01-15T06:13:15;2.50;99.90
1405;DHT22;697;51.114;6.542;2024-01-15T06:15:42;2.50;99.90
1405;DHT22;697;51.114;6.542;2024-01-15T06:18:08;2.50;99.90
1405;DHT22;697;51.114;6.542;2024-01-15T06:20:35;2.50;99.90
1405;DHT22;697;51.114;6.542;2024-01-15T06:23:02;2.50;99.90
1405;DHT22;697;51.114;6.542;2024-01-15T06:25:30;2.50;99.90
1405;DHT22;697;51.114;6.542;2024-01-15T06:27:57;2.50;99.90
1405;DHT22;697;51.114;6.542;2024-01-15T06:30:23;2.50;99.90
1405;DHT22;697;51.114;6.542;2024-01-15T06:32:50;2.50;99.90
1405;DHT22;697;51.114;6.542;2024-01-15T06:35:17;2.50;99.90
1405;DHT22;697;51.114;6.542;2024-01-15T06:37:43;2.50;99.90
1405;DHT22;697;51.114;6.542;2024-01-15T06:40:10;2.50;99.90
1405;DHT22;697;51.114;6.542;2024-01-15T06:42:38;2.50;99.90
1405;DHT22;697;51.114;6.542;2024-01-15T06:45:06;2.50;99.90
1405;DHT22;697;51.114;6.542;2024-01-15T06:47:33;2.50;99.90
1405;DHT22;697;51.114;6.542;2024-01-15T06:50:00;2.50;99.90
1405;DHT22;697;51.114;6.542;2024-01-15T06:52:26;2.40;99.90
1405;DHT22;697;51.114;6.542;2024-01-15T06:54:53;2.40;99.90
1405;DHT22;697;51.114;6.542;2024-01-15T06:57:20;2.40;99.90
1405;DHT22;697;51.114;6.542;2024-01-15T06:59:48;2.40;99.90
1405;DHT22;697;51.114;6.542;2024-01-15T07:02:15;2.40;99.90
1405;DHT22;697;51.114;6.542;2024-01-15T07:04:42;2.50;99.90
1405;DHT22;697;51.114;6.542;2024-01-15T07:07:08;2.50;99.90
1405;DHT22;697;51.114;6.542;2024-01-15T07:09:35;2.50;99.90
1405;DHT22;697;51.114;6.542;2024-01-15T07:12:02;2.50;99.90
1405;DHT22;697;51.114;6.542;2024-01-15T07:14:29;2.50;99.90
1405;DHT22;697;51.114;6.542;2024-01-15T07:16:57;2.50;99.90
1405;DHT22;697;51.114;6.542;2024-01-15T07:19:24;2.50;99.90
1405;DHT22;697;51.114;6.542;2024-01-15T07:21:50;2.40;99.90
1405;DHT22;697;51.114;6.542;2024-01-15T07:24:17;2.50;99.90
1405;DHT22;697;51.114;6.542;2024-01-15T07:26:44;2.50;99.90
1405;DHT22;697;51.114;6.542;2024-01-15T07:29:10;2.40;99.90
1405;DHT22;697;51.114;6.542;2024-01-15T07:31:37;2.50;99.90
1405;DHT22;697;51.114;6.542;2024-01-15T07:34:05;2.50;99.90
1405;DHT22;697;51.114;6.542;2024-01-15T07:36:32;2.60;99.90
1405;DHT22;697;51.114;6.542;2024-01-15T07:38:58;2.50;99.90
1405;DHT22;697;51.114;6.542;2024-01-15T07:41:25;2.50;99.90
1405;DHT22;697;51.114;6.542;2024-01-15T07:43:52;2.50;99.90
1405;DHT22;697;51.114;6.542;2024-01-15T07:46:18;2.50;99.90
1405;DHT22;697;51.114;6.542;2024-01-15T07:48:45;2.50;99.90
1405;DHT22;697;51.114;6.542;2024-01-15T07:51:13;2.60;99.90
1405;DHT22;697;51.114;6.542;2024-01-15T07:53:40;2.50;99.90
1405;DHT22;697;51.114;6.542;2024-01-15T07:56:07;2.50;99.90
1405;DHT22;697;51.114;6.542;2024-01-15T07:58:33;2.50;99.90
1405;DHT22;697;51.114;6.542;2024-01-15T08:01:00;2.50;99.90
1405;DHT22;697;51.114;6.542;2024-01-15T08:03:27;2.50;99.90
1405;DHT22;697;51.114;6.542;2024-01-15T08:05:53;2.50;99.90
1405;DHT22;697;51.114;6.542;2024-01-15T08:08:24;2.40;99.90
1405;DHT22;697;51.114;6.542;2024-01-15T08:10:51;2.40;99.90
1405;DHT22;697;51.114;6.542;2024-01-15T08:13:18;2.40;99.90
1405;DHT22;697;51.114;6.542;2024-01-15T08:15:45;2.40;99.90
1405;DHT22;697;51.114;6.542;2024-01-15T08:18:12;2.40;99.90
1405;DHT22;697;51.114;6.542;2024-01-15T08:20:39;2.40;99.90
1405;DHT22;697;51.114;6.542;2024-01-15T08:23:06;2.40;99.90
1405;DHT22;697;51.114;6.542;2024-01-15T08:25:34;2.30;99.90
1405;DHT22;697;51.114;6.542;2024-01-15T08:28:01;2.30;99.90
1405;DHT22;697;51.114;6.542;2024-01-15T08:30:28;2.30;99.90
1405;DHT22;697;51.114;6.542;2024-01-15T08:32:55;2.40;99.90
1405;DHT22;697;51.114;6.542;2024-01-15T08:35:22;2.30;99.90
1405;DHT22;697;51.114;6.542;2024-01-15T08:37:50;2.40;99.90
1405;DHT22;697;51.114;6.542;2024-01-15T08:40:17;2.30;99.90
1405;DHT22;697;51.114;6.542;2024-01-15T08:42:45;2.30;99.90
1405;DHT22;697;51.114;6.542;2024-01-15T08:45:12;2.30;99.90
1405;DHT22;697;51.114;6.542;2024-01-15T08:47:39;2.30;99.90
1405;DHT22;697;51.114;6.542;2024-01-15T08:50:06;2.30;99.90
1405;DHT22;697;51.114;6.542;2024-01-15T08:52:35;2.30;99.90
1405;DHT22;697;51.114;6.542;2024-01-15T08:55:03;2.30;99.90
1405;DHT22;697;51.114;6.542;2024-01-15T08:57:29;2.30;99.90
1405;DHT22;697;51.114;6.542;2024-01-15T08:59:57;2.30;99.90
1405;DHT22;697;51.114;6.542;2024-01-15T09:02:25;2.20;99.90
1405;DHT22;697;51.114;6.542;2024-01-15T09:04:51;2.20;99.90
1405;DHT22;697;51.114;6.542;2024-01-15T09:07:18;2.20;99.90
1405;DHT22;697;51.114;6.542;2024-01-15T09:09:45;2.30;99.90
1405;DHT22;697;51.114;6.542;2024-01-15T09:12:11;2.20;99.90
1405;DHT22;697;51.114;6.542;2024-01-15T09:14:40;2.30;99.90
1405;DHT22;697;51.114;6.542;2024-01-15T09:17:08;2.30;99.90
1405;DHT22;697;51.114;6.542;2024-01-15T09:19:35;2.30;99.90
1405;DHT22;697;51.114;6.542;2024-01-15T09:22:02;2.20;99.90
1405;DHT22;697;51.114;6.542;2024-01-15T09:24:29;2.20;99.90
1405;DHT22;697;51.114;6.542;2024-01-15T09:26:55;2.10;99.90
1405;DHT22;697;51.114;6.542;2024-01-15T09:29:22;2.10;99.90
1405;DHT22;697;51.114;6.542;2024-01-15T09:31:49;2.20;99.90
1405;DHT22;697;51.114;6.542;2024-01-15T09:34:18;2.20;99.90
1405;DHT22;697;51.114;6.542;2024-01-15T09:36:44;2.20;99.90
1405;DHT22;697;51.114;6.542;2024-01-15T09:39:11;2.20;99.90
1405;DHT22;697;51.114;6.542;2024-01-15T09:41:38;2.30;99.90
1405;DHT22;697;51.114;6.542;2024-01-15T09:44:05;2.30;99.90
1405;DHT22;697;51.114;6.542;2024-01-15T09:46:33;2.30;99.90
1405;DHT22;697;51.114;6.542;2024-01-15T09:49:00;2.30;99.90
1405;DHT22;697;51.114;6.542;2024-01-15T09:51:31;2.30;99.90
1405;DHT22;697;51.114;6.542;2024-01-15T09:53:58;2.40;99.90
1405;DHT22;697;51.114;6.542;2024-01-15T09:56:25;2.40;99.90
1405;DHT22;697;51.114;6.542;2024-01-15T09:58:52;2.40;99.90
1405;DHT22;697;51.114;6.542;2024-01-15T10:01:20;2.50;99.90
1405;DHT22;697;51.114;6.542;2024-01-15T10:03:47;2.50;99.90
1405;DHT22;697;51.114;6.542;2024-01-15T10:06:15;2.50;99.90
1405;DHT22;697;51.114;6.542;2024-01-15T10:08:47;2.40;99.90
1405;DHT22;697;51.114;6.542;2024-01-15T10:11:14;2.50;99.90
1405;DHT22;697;51.114;6.542;2024-01-15T10:13:42;2.50;99.90
1405;DHT22;697;51.114;6.542;2024-01-15T10:16:09;2.50;99.90
1405;DHT22;697;51.114;6.542;2024-01-15T10:18:36;2.50;99.90
1405;DHT22;697;51.114;6.542;2024-01-15T10:21:06;2.50;99.90
1405;DHT22;697;51.114;6.542;2024-01-15T10:23:33;2.50;99.90
1405;DHT22;697;51.114;6.542;2024-01-15T10:26:01;2.50;99.90
1405;DHT22;697;51.114;6.542;2024-01-15T10:28:28;2.40;99.90
1405;DHT22;697;51.114;6.542;2024-01-15T10:30:58;2.40;99.90
1405;DHT22;697;51.114;6.542;2024-01-15T10:33:26;2.40;99.90
1405;DHT22;697;51.114;6.542;2024-01-15T10:35:54;2.40;99.90
1405;DHT22;697;51.114;6.542;2024-01-15T10:38:21;2.40;99.90
1405;DHT22;697;51.114;6.542;2024-01-15T10:40:48;2.40;99.90
1405;DHT22;697;51.114;6.542;2024-01-15T10:43:18;2.50;99.90
1405;DHT22;697;51.114;6.542;2024-01-15T10:45:45;2.50;99.90
1405;DHT22;697;51.114;6.542;2024-01-15T10:48:12;2.60;99.90
1405;DHT22;697;51.114;6.542;2024-01-15T10:50:40;2.60;99.90
1405;DHT22;697;51.114;6.542;2024-01-15T10:53:08;2.60;99.90
1405;DHT22;697;51.114;6.542;2024-01-15T10:55:37;2.60;99.90
1405;DHT22;697;51.114;6.542;2024-01-15T10:58:05;2.70;99.90
1405;DHT22;697;51.114;6.542;2024-01-15T11:00:35;2.60;99.90
1405;DHT22;697;51.114;6.542;2024-01-15T11:03:04;2.60;99.90
1405;DHT22;697;51.114;6.542;2024-01-15T11:05:33;2.70;99.90
1405;DHT22;697;51.114;6.542;2024-01-15T11:08:01;2.70;99.90
1405;DHT22;697;51.114;6.542;2024-01-15T11:10:41;2.80;99.90
1405;DHT22;697;51.114;6.542;2024-01-15T11:13:09;2.90;99.90
1405;DHT22;697;51.114;6.542;2024-01-15T11:15:55;2.80;99.90
1405;DHT22;697;51.114;6.542;2024-01-15T11:18:22;2.70;99.90
1405;DHT22;697;51.114;6.542;2024-01-15T11:23:54;2.80;99.90
1405;DHT22;697;51.114;6.542;2024-01-15T11:26:34;2.70;99.90
1405;DHT22;697;51.114;6.542;2024-01-15T11:29:02;2.80;99.90
1405;DHT22;697;51.114;6.542;2024-01-15T11:32:04;2.70;99.90
1405;DHT22;697;51.114;6.542;2024-01-15T11:34:54;2.70;99.90
1405;DHT22;697;51.114;6.542;2024-01-15T11:37:24;2.70;99.90
1405;DHT22;697;51.114;6.542;2024-01-15T11:39:52;2.70;99.90
1405;DHT22;697;51.114;6.542;2024-01-15T11:42:19;2.80;99.90
1405;DHT22;697;51.114;6.542;2024-01-15T11:44:47;2.70;99.90
1405;DHT22;697;51.114;6.542;2024-01-15T11:47:15;2.80;99.90
1405;DHT22;697;51.114;6.542;2024-01-15T11:49:59;3.00;99.90
1405;DHT22;697;51.114;6.542;2024-01-15T11:52:32;3.20;99.90
1405;DHT22;697;51.114;6.542;2024-01-15T11:55:02;3.20;99.90
1405;DHT22;697;51.114;6.542;2024-01-15T11:57:40;3.30;99.90
1405;DHT22;697;51.114;6.542;2024-01-15T12:00:09;3.40;99.90
1405;DHT22;697;51.114;6.542;2024-01-15T12:02:38;3.50;99.90
1405;DHT22;697;51.114;6.542;2024-01-15T12:05:05;3.60;99.90
1405;DHT22;697;51.114;6.542;2024-01-15T12:07:33;3.60;99.90
1405;DHT22;697;51.114;6.542;2024-01-15T12:10:00;3.60;99.90
1405;DHT22;697;51.114;6.542;2024-01-15T12:12:34;3.50;99.90
1405;DHT22;697;51.114;6.542;2024-01-15T12:15:03;3.40;99.90
1405;DHT22;697;51.114;6.542;2024-01-15T12:17:30;3.40;99.90
1405;DHT22;697;51.114;6.542;2024-01-15T12:19:59;3.40;99.90
1405;DHT22;697;51.114;6.542;2024-01-15T12:22:26;3.30;99.90
1405;DHT22;697;51.114;6.542;2024-01-15T12:24:53;3.20;99.90
1405;DHT22;697;51.114;6.542;2024-01-15T12:27:20;3.20;99.90
1405;DHT22;697;51.114;6.542;2024-01-15T12:29:47;3.20;99.90
1405;DHT22;697;51.114;6.542;2024-01-15T12:32:14;3.20;99.90
1405;DHT22;697;51.114;6.542;2024-01-15T12:34:41;3.20;99.90
1405;DHT22;697;51.114;6.542;2024-01-15T12:37:09;3.20;99.90
1405;DHT22;697;51.114;6.542;2024-01-15T12:39:37;3.20;99.90
1405;DHT22;697;51.114;6.542;2024-01-15T12:42:04;3.20;99.90
1405;DHT22;697;51.114;6.542;2024-01-15T12:44:32;3.20;99.90
1405;DHT22;697;51.114;6.542;2024-01-15T12:46:58;3.20;99.90
1405;DHT22;697;51.114;6.542;2024-01-15T12:49:26;3.20;99.90
1405;DHT22;697;51.114;6.542;2024-01-15T12:51:53;3.20;99.90
1405;DHT22;697;51.114;6.542;2024-01-15T12:54:23;3.20;99.90
1405;DHT22;697;51.114;6.542;2024-01-15T12:56:51;3.20;99.90
1405;DHT22;697;51.114;6.542;2024-01-15T12:59:18;3.10;99.90
1405;DHT22;697;51.114;6.542;2024-01-15T13:01:45;3.10;99.90
1405;DHT22;697;51.114;6.542;2024-01-15T13:04:21;3.10;99.90
1405;DHT22;697;51.114;6.542;2024-01-15T13:06:48;3.20;99.90
1405;DHT22;697;51.114;6.542;2024-01-15T13:09:15;3.20;99.90
1405;DHT22;697;51.114;6.542;2024-01-15T13:11:43;3.10;99.90
1405;DHT22;697;51.114;6.542;2024-01-15T13:14:10;3.10;99.90
1405;DHT22;697;51.114;6.542;2024-01-15T13:16:39;3.10;99.90
1405;DHT22;697;51.114;6.542;2024-01-15T13:19:07;3.10;99.90
1405;DHT22;697;51.114;6.542;2024-01-15T13:21:33;3.10;99.90
1405;DHT22;697;51.114;6.542;2024-01-15T13:24:00;3.10;99.90
1405;DHT22;697;51.114;6.542;2024-01-15T13:26:28;3.10;99.90
1405;DHT22;697;51.114;6.542;2024-01-15T13:28:56;3.20;99.90
1405;DHT22;697;51.114;6.542;2024-01-15T13:31:23;3.30;99.90
1405;DHT22;697;51.114;6.542;2024-01-15T13:33:50;3.40;99.90
1405;DHT22;697;51.114;6.542;2024-01-15T13:36:17;3.30;99.90
1405;DHT22;697;51.114;6.542;2024-01-15T13:38:43;3.30;99.90
1405;DHT22;697;51.114;6.542;2024-01-15T13:41:10;3.20;99.90
1405;DHT22;697;51.114;6.542;2024-01-15T13:43:37;3.20;99.90
1405;DHT22;697;51.114;6.542;2024-01-15T13:46:05;3.10;99.90
1405;DHT22;697;51.114;6.542;2024-01-15T13:48:32;3.10;99.90
1405;DHT22;697;51.114;6.542;2024-01-15T13:50:59;3.10;99.90
1405;DHT22;697;51.114;6.542;2024-01-15T13:53:25;3.10;99.90
1405;DHT22;697;51.114;6.542;2024-01-15T13:55:52;3.10;99.90
1405;DHT22;697;51.114;6.542;2024-01-15T13:58:19;3.10;99.90
1405;DHT22;697;51.114;6.542;2024-01-15T14:00:47;3.10;99.90
1405;DHT22;697;51.114;6.542;2024-01-15T14:03:15;3.10;99.90
1405;DHT22;697;51.114;6.542;2024-01-15T14:05:41;3.10;99.90
1405;DHT22;697;51.114;6.542;2024-01-15T14:08:08;3.00;99.90
1405;DHT22;697;51.114;6.542;2024-01-15T14:10:35;3.00;99.90
1405;DHT22;697;51.114;6.542;2024-01-15T14:13:03;3.10;99.90
1405;DHT22;697;51.114;6.542;2024-01-15T14:15:29;3.10;99.90
1405;DHT22;697;51.114;6.542;2024-01-15T14:17:56;3.10;99.90
1405;DHT22;697;51.114;6.542;2024-01-15T14:20:25;3.10;99.90
1405;DHT22;697;51.114;6.542;2024-01-15T14:22:51;3.00;99.90
1405;DHT22;697;51.114;6.542;2024-01-15T14:25:18;3.00;99.90
1405;DHT22;697;51.114;6.542;2024-01-15T14:27:45;3.00;99.90
1405;DHT22;697;51.114;6.542;2024-01-15T14:30:13;2.90;99.90
1405;DHT22;697;51.114;6.542;2024-01-15T14:32:41;2.90;99.90
1405;DHT22;697;51.114;6.542;2024-01-15T14:35:08;2.90;99.90
1405;DHT22;697;51.114;6.542;2024-01-15T14:37:37;2.80;99.90
1405;DHT22;697;51.114;6.542;2024-01-15T14:40:05;2.90;99.90
1405;DHT22;697;51.114;6.542;2024-01-15T14:42:33;2.90;99.90
1405;DHT22;697;51.114;6.542;2024-01-15T14:45:00;2.90;99.90
1405;DHT22;697;51.114;6.542;2024-01-15T14:47:28;3.00;99.90
1405;DHT22;697;51.114;6.542;2024-01-15T14:49:55;3.00;99.90
1405;DHT22;697;51.114;6.542;2024-01-15T14:52:22;2.90;99.90
1405;DHT22;697;51.114;6.542;2024-01-15T14:54:50;2.90;99.90
1405;DHT22;697;51.114;6.542;2024-01-15T14:57:17;2.90;99.90
1405;DHT22;697;51.114;6.542;2024-01-15T14:59:44;2.90;99.90
1405;DHT22;697;51.114;6.542;2024-01-15T15:02:11;3.00;99.90
1405;DHT22;697;51.114;6.542;2024-01-15T15:04:38;2.90;99.90
1405;DHT22;697;51.114;6.542;2024-01-15T15:07:05;2.90;99.90
1405;DHT22;697;51.114;6.542;2024-01-15T15:09:32;2.80;99.90
1405;DHT22;697;51.114;6.542;2024-01-15T15:12:01;2.80;99.90
1405;DHT22;697;51.114;6.542;2024-01-15T15:14:30;2.80;99.90
1405;DHT22;697;51.114;6.542;2024-01-15T15:16:57;2.70;99.90
1405;DHT22;697;51.114;6.542;2024-01-15T15:19:23;2.80;99.90
1405;DHT22;697;51.114;6.542;2024-01-15T15:21:50;2.80;99.90
1405;DHT22;697;51.114;6.542;2024-01-15T15:24:17;2.70;99.90
1405;DHT22;697;51.114;6.542;2024-01-15T15:26:43;2.70;99.90
1405;DHT22;697;51.114;6.542;2024-01-15T15:29:11;2.60;99.90
1405;DHT22;697;51.114;6.542;2024-01-15T15:31:38;2.60;99.90
1405;DHT22;697;51.114;6.542;2024-01-15T15:34:05;2.60;99.90
1405;DHT22;697;51.114;6.542;2024-01-15T15:36:31;2.50;99.90
1405;DHT22;697;51.114;6.542;2024-01-15T15:38:58;2.50;99.90
1405;DHT22;697;51.114;6.542;2024-01-15T15:41:25;2.50;99.90
1405;DHT22;697;51.114;6.542;2024-01-15T15:43:53;2.50;99.90
1405;DHT22;697;51.114;6.542;2024-01-15T15:46:21;2.50;99.90
1405;DHT22;697;51.114;6.542;2024-01-15T15:48:48;2.50;99.90
1405;DHT22;697;51.114;6.542;2024-01-15T15:51:15;2.50;99.90
1405;DHT22;697;51.114;6.542;2024-01-15T15:53:42;2.50;99.90
1405;DHT22;697;51.114;6.542;2024-01-15T15:56:09;2.50;99.90
1405;DHT22;697;51.114;6.542;2024-01-15T15:58:36;2.50;99.90
1405;DHT22;697;51.114;6.542;2024-01-15T16:01:03;2.50;99.90
1405;DHT22;697;51.114;6.542;2024-01-15T16:03:33;2.50;99.90
1405;DHT22;697;51.114;6.542;2024-01-15T16:06:00;2.50;99.90
1405;DHT22;697;51.114;6.542;2024-01-15T16:08:26;2.50;99.90
1405;DHT22;697;51.114;6.542;2024-01-15T16:10:53;2.40;99.90
1405;DHT22;697;51.114;6.542;2024-01-15T16:13:20;2.50;99.90
1405;DHT22;697;51.114;6.542;2024-01-15T16:15:47;2.40;99.90
1405;DHT22;697;51.114;6.542;2024-01-15T16:18:14;2.40;99.90
1405;DHT22;697;51.114;6.542;2024-01-15T16:20:42;2.40;99.90
1405;DHT22;697;51.114;6.542;2024-01-15T16:23:09;2.40;99.90
1405;DHT22;697;51.114;6.542;2024-01-15T16:25:36;2.40;99.90
1405;DHT22;697;51.114;6.542;2024-01-15T16:28:03;2.40;99.90
1405;DHT22;697;51.114;6.542;2024-01-15T16:30:30;2.30;99.90
1405;DHT22;697;51.114;6.542;2024-01-15T16:32:56;2.40;99.90
1405;DHT22;697;51.114;6.542;2024-01-15T16:35:23;2.40;99.90
1405;DHT22;697;51.114;6.542;2024-01-15T16:37:51;2.40;99.90